createdAt,value
2024-04-15T00:00:08.207Z,1.52
2024-04-15T00:02:41.306Z,1.90
2024-04-15T00:05:09.204Z,1.95
2024-04-15T00:07:38.189Z,2.00
2024-04-15T00:10:06.055Z,1.75
2024-04-15T00:12:33.606Z,2.42
2024-04-15T00:15:01.086Z,2.15
2024-04-15T00:17:28.591Z,2.15
2024-04-15T00:19:56.409Z,1.85
2024-04-15T00:22:23.903Z,1.85
2024-04-15T00:24:51.661Z,2.25
2024-04-15T00:27:19.044Z,1.50
2024-04-15T00:29:46.520Z,2.08
2024-04-15T00:32:14.357Z,2.42
2024-04-15T00:34:41.796Z,1.95
2024-04-15T00:37:09.280Z,1.95
2024-04-15T00:39:37.435Z,1.55
2024-04-15T00:42:05.201Z,2.10
2024-04-15T00:44:36.244Z,1.92
2024-04-15T00:47:04.569Z,2.58
2024-04-15T00:49:33.675Z,1.45
2024-04-15T00:52:03.694Z,2.13
2024-04-15T00:54:33.472Z,2.17
2024-04-15T00:57:04.892Z,2.33
2024-04-15T00:59:34.531Z,2.03
2024-04-15T01:02:02.339Z,1.83
2024-04-15T01:04:30.555Z,2.00
2024-04-15T01:06:58.559Z,2.35
2024-04-15T01:09:26.792Z,2.10
2024-04-15T01:11:54.512Z,1.83
2024-04-15T01:14:22.670Z,1.75
2024-04-15T01:16:50.429Z,1.88
2024-04-15T01:19:18.028Z,2.10
2024-04-15T01:21:45.606Z,1.85
2024-04-15T01:24:13.428Z,1.65
2024-04-15T01:26:46.815Z,2.13
2024-04-15T01:29:14.631Z,2.03
2024-04-15T01:31:42.177Z,2.17
2024-04-15T01:34:09.971Z,2.78
2024-04-15T01:36:37.509Z,1.90
2024-04-15T01:39:05.053Z,1.85
2024-04-15T01:41:32.921Z,2.83
2024-04-15T01:44:00.500Z,2.10
2024-04-15T01:46:28.095Z,1.50
2024-04-15T01:48:55.780Z,2.80
2024-04-15T01:51:23.465Z,2.22
2024-04-15T01:53:50.926Z,2.00
2024-04-15T01:56:18.697Z,1.98
2024-04-15T01:58:46.083Z,1.98
2024-04-15T02:01:13.590Z,2.50
2024-04-15T02:03:43.303Z,2.15
2024-04-15T02:06:10.942Z,2.03
2024-04-15T02:08:38.392Z,2.40
2024-04-15T02:11:05.978Z,2.05
2024-04-15T02:13:33.590Z,2.45
2024-04-15T02:16:01.288Z,2.22
2024-04-15T02:18:29.278Z,2.50
2024-04-15T02:20:56.895Z,2.05
2024-04-15T02:23:24.438Z,2.15
2024-04-15T02:25:52.025Z,2.20
2024-04-15T02:28:19.569Z,2.17
2024-04-15T02:30:50.202Z,2.25
2024-04-15T02:33:17.710Z,2.30
2024-04-15T02:35:46.584Z,2.20
2024-04-15T02:38:13.999Z,2.85
2024-04-15T02:40:43.439Z,2.58
2024-04-15T02:43:11.419Z,2.28
2024-04-15T02:45:39.205Z,2.15
2024-04-15T02:48:07.164Z,2.83
2024-04-15T02:50:34.601Z,2.20
2024-04-15T02:53:02.165Z,2.88
2024-04-15T02:55:29.697Z,2.30
2024-04-15T02:57:57.089Z,2.20
2024-04-15T03:00:25.778Z,2.17
2024-04-15T03:02:53.711Z,2.50
2024-04-15T03:05:21.717Z,2.30
2024-04-15T03:07:49.242Z,2.63
2024-04-15T03:10:16.964Z,2.72
2024-04-15T03:12:48.726Z,2.15
2024-04-15T03:15:16.815Z,2.33
2024-04-15T03:17:47.981Z,2.33
2024-04-15T03:20:17.241Z,2.08
2024-04-15T03:22:51.263Z,2.08
2024-04-15T03:25:23.881Z,2.25
2024-04-15T03:27:51.936Z,2.15
2024-04-15T03:30:19.856Z,3.10
2024-04-15T03:32:47.595Z,2.95
2024-04-15T03:35:16.493Z,2.65
2024-04-15T03:37:44.074Z,2.72
2024-04-15T03:40:11.990Z,1.98
2024-04-15T03:42:39.634Z,2.13
2024-04-15T03:45:07.729Z,2.38
2024-04-15T03:47:35.570Z,2.63
2024-04-15T03:50:03.506Z,1.73
2024-04-15T03:52:32.109Z,2.20
2024-04-15T03:54:59.841Z,1.98
2024-04-15T03:57:27.924Z,2.40
2024-04-15T03:59:56.734Z,2.33
2024-04-15T04:02:24.617Z,2.28
2024-04-15T04:04:52.364Z,2.22
2024-04-15T04:07:22.242Z,3.25
2024-04-15T04:09:49.687Z,2.70
2024-04-15T04:12:18.970Z,3.08
2024-04-15T04:14:46.775Z,2.30
2024-04-15T04:17:15.528Z,2.63
2024-04-15T04:19:44.506Z,2.28
2024-04-15T04:22:12.288Z,2.35
2024-04-15T04:24:39.975Z,2.88
2024-04-15T04:27:07.641Z,2.40
2024-04-15T04:29:35.581Z,2.75
2024-04-15T04:32:03.908Z,2.15
2024-04-15T04:34:31.494Z,2.72
2024-04-15T04:36:59.258Z,2.25
2024-04-15T04:39:26.954Z,2.40
2024-04-15T04:41:54.750Z,2.80
2024-04-15T04:44:22.587Z,2.25
2024-04-15T04:46:50.146Z,2.28
2024-04-15T04:49:18.630Z,1.60
2024-04-15T04:51:46.251Z,2.00
2024-04-15T04:54:17.632Z,2.70
2024-04-15T04:56:45.784Z,2.45
2024-04-15T04:59:14.872Z,1.63
2024-04-15T05:01:42.530Z,2.05
2024-04-15T05:04:12.084Z,2.13
2024-04-15T05:06:39.909Z,2.22
2024-04-15T05:09:11.314Z,2.88
2024-04-15T05:11:39.618Z,2.28
2024-04-15T05:14:07.165Z,2.45
2024-04-15T05:16:34.899Z,2.50
2024-04-15T05:19:02.436Z,1.58
2024-04-15T05:21:33.301Z,2.08
2024-04-15T05:24:01.396Z,1.90
2024-04-15T05:26:29.287Z,2.28
2024-04-15T05:28:57.400Z,2.15
2024-04-15T05:31:24.946Z,3.05
2024-04-15T05:33:52.639Z,1.90
2024-04-15T05:36:20.194Z,2.58
2024-04-15T05:38:48.067Z,1.52
2024-04-15T05:41:15.834Z,1.90
2024-04-15T05:43:43.471Z,1.75
2024-04-15T05:46:12.060Z,1.67
2024-04-15T05:48:39.890Z,2.75
2024-04-15T05:51:07.558Z,1.70
2024-04-15T05:53:35.202Z,1.52
2024-04-15T05:56:02.812Z,1.80
2024-04-15T05:58:30.579Z,2.10
2024-04-15T06:00:58.223Z,2.15
2024-04-15T06:03:26.161Z,1.88
2024-04-15T06:05:53.781Z,2.47
2024-04-15T06:08:21.412Z,1.52
2024-04-15T06:10:49.506Z,2.42
2024-04-15T06:13:17.549Z,1.75
2024-04-15T06:15:45.190Z,2.20
2024-04-15T06:18:12.804Z,1.98
2024-04-15T06:20:42.409Z,2.50
2024-04-15T06:23:09.916Z,2.13
2024-04-15T06:25:37.855Z,2.08
2024-04-15T06:28:06.338Z,1.60
2024-04-15T06:30:33.991Z,1.67
2024-04-15T06:33:01.607Z,1.70
2024-04-15T06:35:29.272Z,2.05
2024-04-15T06:37:58.259Z,2.08
2024-04-15T06:40:26.604Z,2.40
2024-04-15T06:42:54.452Z,1.63
2024-04-15T06:45:22.052Z,1.67
2024-04-15T06:47:51.363Z,2.47
2024-04-15T06:50:20.487Z,1.83
2024-04-15T06:52:48.309Z,1.90
2024-04-15T06:55:18.118Z,1.80
2024-04-15T06:57:45.721Z,1.70
2024-04-15T07:00:13.719Z,2.10
2024-04-15T07:02:42.220Z,2.28
2024-04-15T07:05:10.111Z,1.60
2024-04-15T07:07:37.682Z,1.98
2024-04-15T07:10:07.512Z,2.17
2024-04-15T07:12:35.415Z,1.92
2024-04-15T07:15:02.951Z,1.90
2024-04-15T07:17:30.789Z,1.92
2024-04-15T07:19:59.598Z,1.67
2024-04-15T07:22:27.258Z,1.60
2024-04-15T07:24:54.866Z,1.83
2024-04-15T07:27:22.485Z,2.40
2024-04-15T07:29:50.403Z,2.00
2024-04-15T07:32:18.700Z,2.53
2024-04-15T07:34:46.533Z,1.92
2024-04-15T07:37:14.179Z,2.35
2024-04-15T07:39:42.810Z,2.22
2024-04-15T07:42:11.059Z,1.60
2024-04-15T07:44:38.924Z,2.05
2024-04-15T07:47:06.938Z,2.00
2024-04-15T07:49:36.364Z,1.92
2024-04-15T07:52:04.994Z,2.42
2024-04-15T07:54:33.682Z,1.90
2024-04-15T07:57:01.255Z,2.67
2024-04-15T07:59:28.813Z,2.17
2024-04-15T08:01:57.273Z,2.13
2024-04-15T08:04:25.417Z,2.05
2024-04-15T08:07:03.759Z,2.85
2024-04-15T08:09:39.126Z,1.95
2024-04-15T08:12:07.234Z,2.47
2024-04-15T08:14:35.188Z,2.05
2024-04-15T08:17:03.098Z,2.25
2024-04-15T08:19:32.270Z,1.52
2024-04-15T08:22:00.404Z,1.98
2024-04-15T08:24:29.104Z,1.58
2024-04-15T08:26:56.607Z,2.33
2024-04-15T08:29:24.530Z,1.80
2024-04-15T08:31:55.390Z,2.10
2024-04-15T08:34:24.198Z,1.80
2024-04-15T08:36:51.878Z,2.53
2024-04-15T08:39:19.727Z,2.08
2024-04-15T08:42:04.109Z,2.20
2024-04-15T08:44:35.129Z,2.45
2024-04-15T08:47:13.737Z,1.95
2024-04-15T08:49:41.842Z,2.22
2024-04-15T08:52:15.464Z,2.80
2024-04-15T08:54:43.220Z,1.75
2024-04-15T08:57:13.736Z,2.55
2024-04-15T08:59:44.734Z,1.85
2024-04-15T09:02:15.900Z,1.75
2024-04-15T09:04:44.674Z,2.05
2024-04-15T09:07:12.737Z,1.70
2024-04-15T09:09:40.559Z,3.00
2024-04-15T09:12:08.441Z,2.80
2024-04-15T09:14:38.779Z,1.92
2024-04-15T09:17:10.123Z,2.60
2024-04-15T09:19:37.659Z,2.35
2024-04-15T09:22:05.287Z,2.00
2024-04-15T09:24:33.206Z,1.73
2024-04-15T09:27:02.528Z,1.65
2024-04-15T09:29:30.337Z,2.03
2024-04-15T09:31:57.952Z,1.88
2024-04-15T09:34:26.594Z,3.80
2024-04-15T09:36:59.764Z,1.92
2024-04-15T09:39:28.933Z,2.35
2024-04-15T09:41:59.953Z,2.05
2024-04-15T09:44:27.931Z,2.22
2024-04-15T09:46:56.498Z,2.45
2024-04-15T09:49:25.765Z,7.43
2024-04-15T09:51:57.742Z,2.80
2024-04-15T09:54:31.981Z,2.30
2024-04-15T09:57:11.855Z,2.45
2024-04-15T09:59:41.109Z,3.28
2024-04-15T10:02:27.495Z,2.45
2024-04-15T10:05:23.913Z,2.50
2024-04-15T10:07:53.414Z,3.25
2024-04-15T10:10:22.754Z,2.85
2024-04-15T10:12:52.255Z,3.15
2024-04-15T10:15:21.402Z,2.88
2024-04-15T10:18:00.166Z,3.15
2024-04-15T10:20:36.857Z,2.83
2024-04-15T10:23:08.287Z,2.60
2024-04-15T10:25:36.996Z,2.97
2024-04-15T10:28:08.824Z,2.70
2024-04-15T10:30:38.033Z,2.95
2024-04-15T10:33:07.934Z,2.90
2024-04-15T10:35:37.811Z,2.67
2024-04-15T10:38:06.890Z,2.35
2024-04-15T10:40:40.030Z,2.45
2024-04-15T10:43:07.917Z,2.88
2024-04-15T10:45:38.421Z,2.35
2024-04-15T10:48:06.506Z,3.00
2024-04-15T10:50:34.562Z,3.53
2024-04-15T10:53:02.871Z,2.60
2024-04-15T10:55:31.263Z,3.72
2024-04-15T10:57:59.055Z,3.13
2024-04-15T11:00:27.567Z,2.35
2024-04-15T11:02:57.132Z,2.15
2024-04-15T11:05:25.221Z,2.55
2024-04-15T11:07:54.841Z,2.65
2024-04-15T11:10:22.638Z,1.90
2024-04-15T11:12:54.740Z,2.53
2024-04-15T11:15:23.037Z,2.15
2024-04-15T11:17:53.708Z,1.90
2024-04-15T11:20:23.148Z,2.50
2024-04-15T11:22:51.936Z,1.90
2024-04-15T11:25:20.977Z,1.95
2024-04-15T11:27:52.939Z,2.20
2024-04-15T11:30:27.157Z,1.65
2024-04-15T11:33:01.166Z,1.70
2024-04-15T11:35:29.292Z,1.70
2024-04-15T11:38:05.379Z,2.28
2024-04-15T11:40:33.145Z,2.35
2024-04-15T11:43:01.505Z,2.10
2024-04-15T11:45:30.569Z,4.60
2024-04-15T11:47:59.122Z,2.63
2024-04-15T11:50:26.736Z,2.42
2024-04-15T11:53:00.544Z,2.42
2024-04-15T11:55:28.648Z,2.42
2024-04-15T11:57:56.983Z,1.98
2024-04-15T12:00:24.862Z,1.98
2024-04-15T12:02:52.823Z,2.83
2024-04-15T12:05:21.068Z,3.38
2024-04-15T12:07:48.856Z,2.53
2024-04-15T12:10:16.631Z,1.92
2024-04-15T12:12:44.319Z,2.83
2024-04-15T12:15:12.851Z,2.78
2024-04-15T12:17:40.844Z,2.65
2024-04-15T12:20:11.701Z,2.65
2024-04-15T12:22:39.499Z,2.33
2024-04-15T12:25:09.494Z,2.25
2024-04-15T12:27:39.673Z,2.97
2024-04-15T12:30:13.094Z,2.75
2024-04-15T12:32:41.965Z,2.00
2024-04-15T12:35:09.850Z,2.10
2024-04-15T12:37:38.041Z,2.60
2024-04-15T12:40:08.951Z,1.77
2024-04-15T12:42:37.032Z,2.15
2024-04-15T12:45:04.928Z,2.13
2024-04-15T12:47:33.164Z,2.42
2024-04-15T12:50:01.369Z,2.00
2024-04-15T12:52:29.341Z,2.20
2024-04-15T12:54:57.207Z,1.83
2024-04-15T12:57:25.526Z,1.92
2024-04-15T12:59:53.578Z,1.85
2024-04-15T13:02:21.526Z,2.05
2024-04-15T13:04:49.741Z,1.90
2024-04-15T13:07:17.473Z,1.27
2024-04-15T13:09:45.352Z,1.67
2024-04-15T13:12:13.353Z,1.70
2024-04-15T13:14:41.572Z,1.83
2024-04-15T13:17:10.314Z,1.98
2024-04-15T13:19:38.247Z,2.03
2024-04-15T13:22:09.234Z,1.75
2024-04-15T13:24:37.857Z,1.98
2024-04-15T13:27:06.418Z,1.63
2024-04-15T13:29:35.196Z,1.95
2024-04-15T13:32:13.483Z,1.95
2024-04-15T13:34:45.383Z,1.65
2024-04-15T13:37:14.857Z,1.95
2024-04-15T13:39:43.389Z,3.05
2024-04-15T13:42:11.101Z,1.48
2024-04-15T13:44:39.125Z,1.35
2024-04-15T13:47:07.349Z,1.60
2024-04-15T13:49:35.460Z,1.67
2024-04-15T13:52:05.212Z,1.92
2024-04-15T13:54:33.162Z,1.15
2024-04-15T13:57:04.831Z,2.03
2024-04-15T13:59:35.229Z,1.58
2024-04-15T14:02:04.033Z,1.67
2024-04-15T14:04:32.078Z,2.85
2024-04-15T14:06:59.741Z,1.17
2024-04-15T14:09:28.066Z,2.13
2024-04-15T14:11:56.026Z,1.63
2024-04-15T14:14:24.575Z,2.25
2024-04-15T14:16:52.958Z,1.92
2024-04-15T14:19:20.788Z,2.08
2024-04-15T14:21:48.463Z,1.30
2024-04-15T14:24:15.996Z,1.50
2024-04-15T14:26:43.948Z,1.60
2024-04-15T14:29:11.804Z,2.33
2024-04-15T14:31:39.612Z,1.65
2024-04-15T14:34:07.558Z,2.10
2024-04-15T14:36:35.375Z,1.50
2024-04-15T14:39:02.962Z,1.17
2024-04-15T14:41:30.612Z,1.75
2024-04-15T14:44:01.518Z,1.23
2024-04-15T14:46:30.631Z,1.88
2024-04-15T14:48:58.558Z,2.03
2024-04-15T14:51:26.466Z,1.13
2024-04-15T14:53:54.080Z,1.75
2024-04-15T14:56:22.196Z,1.70
2024-04-15T14:58:49.716Z,1.30
2024-04-15T15:01:17.593Z,1.23
2024-04-15T15:03:45.205Z,1.17
2024-04-15T15:06:13.257Z,1.77
2024-04-15T15:08:43.898Z,1.33
2024-04-15T15:11:12.754Z,1.73
2024-04-15T15:13:40.766Z,1.33
2024-04-15T15:16:11.532Z,1.60
2024-04-15T15:18:39.594Z,1.27
2024-04-15T15:21:16.070Z,1.00
2024-04-15T15:23:51.210Z,1.20
2024-04-15T15:26:19.823Z,1.40
2024-04-15T15:28:47.457Z,1.10
2024-04-15T15:31:15.218Z,1.60
2024-04-15T15:33:43.969Z,1.60
2024-04-15T15:36:11.805Z,1.30
2024-04-15T15:38:39.651Z,1.85
2024-04-15T15:41:07.443Z,1.40
2024-04-15T15:43:35.367Z,1.67
2024-04-15T15:46:03.130Z,1.23
2024-04-15T15:48:30.855Z,1.33
2024-04-15T15:51:01.573Z,1.92
2024-04-15T15:53:29.996Z,1.20
2024-04-15T15:55:58.365Z,1.10
2024-04-15T15:58:26.178Z,1.33
2024-04-15T16:00:54.003Z,0.93
2024-04-15T16:03:22.154Z,1.10
2024-04-15T16:05:50.332Z,1.38
2024-04-15T16:08:18.124Z,1.60
2024-04-15T16:10:46.214Z,0.90
2024-04-15T16:13:14.294Z,1.20
2024-04-15T16:15:41.932Z,1.17
2024-04-15T16:18:09.648Z,2.00
2024-04-15T16:20:39.103Z,1.00
2024-04-15T16:23:06.588Z,1.20
2024-04-15T16:25:34.350Z,1.10
2024-04-15T16:28:02.213Z,1.40
2024-04-15T16:30:29.789Z,1.50
2024-04-15T16:32:57.338Z,1.27
2024-04-15T16:35:25.119Z,0.93
2024-04-15T16:37:52.625Z,1.23
2024-04-15T16:40:20.581Z,0.88
2024-04-15T16:42:48.557Z,1.30
2024-04-15T16:45:16.313Z,0.98
2024-04-15T16:47:44.695Z,1.27
2024-04-15T16:50:12.718Z,1.17
2024-04-15T16:52:40.468Z,1.80
2024-04-15T16:55:08.725Z,1.35
2024-04-15T16:57:38.351Z,1.50
2024-04-15T17:00:06.904Z,1.27
2024-04-15T17:02:34.623Z,1.30
2024-04-15T17:05:02.818Z,0.98
2024-04-15T17:07:30.498Z,1.33
2024-04-15T17:09:58.605Z,1.05
2024-04-15T17:12:26.491Z,1.30
2024-04-15T17:14:54.115Z,0.70
2024-04-15T17:17:22.136Z,1.23
2024-04-15T17:19:50.079Z,0.93
2024-04-15T17:22:18.103Z,1.33
2024-04-15T17:24:45.798Z,0.82
2024-04-15T17:27:13.787Z,1.00
2024-04-15T17:29:41.731Z,0.80
2024-04-15T17:32:09.728Z,1.33
2024-04-15T17:34:38.078Z,1.17
2024-04-15T17:37:05.901Z,0.88
2024-04-15T17:39:33.557Z,1.17
2024-04-15T17:42:01.155Z,1.20
2024-04-15T17:44:29.805Z,1.20
2024-04-15T17:46:57.474Z,1.50
2024-04-15T17:49:25.803Z,1.13
2024-04-15T17:51:53.573Z,1.17
2024-04-15T17:54:21.496Z,1.15
2024-04-15T17:56:49.766Z,1.23
2024-04-15T17:59:17.345Z,1.08
2024-04-15T18:01:44.955Z,1.88
2024-04-15T18:04:13.020Z,1.95
2024-04-15T18:06:40.760Z,1.15
2024-04-15T18:09:08.363Z,1.70
2024-04-15T18:11:35.949Z,1.13
2024-04-15T18:14:03.869Z,1.25
2024-04-15T18:16:32.336Z,1.25
2024-04-15T18:19:00.194Z,1.88
2024-04-15T18:21:28.190Z,1.17
2024-04-15T18:23:56.252Z,1.00
2024-04-15T18:26:24.072Z,1.15
2024-04-15T18:28:51.918Z,1.58
2024-04-15T18:31:20.093Z,1.52
2024-04-15T18:33:47.776Z,1.10
2024-04-15T18:36:15.401Z,1.02
2024-04-15T18:38:43.237Z,1.13
2024-04-15T18:41:10.650Z,1.00
2024-04-15T18:43:38.675Z,1.08
2024-04-15T18:46:06.680Z,1.27
2024-04-15T18:48:35.447Z,0.90
2024-04-15T18:51:04.926Z,1.33
2024-04-15T18:53:32.505Z,0.77
2024-04-15T18:56:00.305Z,0.90
2024-04-15T18:58:28.193Z,0.85
2024-04-15T19:00:56.243Z,0.80
2024-04-15T19:03:24.215Z,0.88
2024-04-15T19:05:52.200Z,1.00
2024-04-15T19:08:19.899Z,0.68
2024-04-15T19:10:47.915Z,0.63
2024-04-15T19:13:15.513Z,0.70
2024-04-15T19:15:43.472Z,0.85
2024-04-15T19:18:11.141Z,0.70
2024-04-15T19:20:40.350Z,0.65
2024-04-15T19:23:08.188Z,1.08
2024-04-15T19:25:36.297Z,0.90
2024-04-15T19:28:05.062Z,0.70
2024-04-15T19:30:33.018Z,0.90
2024-04-15T19:33:02.438Z,0.57
2024-04-15T19:35:30.615Z,0.90
2024-04-15T19:37:58.798Z,1.50
2024-04-15T19:40:26.554Z,0.70
2024-04-15T19:42:54.316Z,0.85
2024-04-15T19:45:21.912Z,0.70
2024-04-15T19:47:49.951Z,1.10
2024-04-15T19:50:17.830Z,1.95
2024-04-15T19:52:45.534Z,1.10
2024-04-15T19:55:13.266Z,0.57
2024-04-15T19:57:44.495Z,0.57
2024-04-15T20:00:13.258Z,0.65
2024-04-15T20:02:41.056Z,0.40
2024-04-15T20:05:08.774Z,0.40
2024-04-15T20:07:36.999Z,0.77
2024-04-15T20:10:04.982Z,0.45
2024-04-15T20:12:32.939Z,0.40
2024-04-15T20:15:01.277Z,0.55
2024-04-15T20:17:46.733Z,0.40
2024-04-15T20:20:20.011Z,0.28
2024-04-15T20:22:47.529Z,0.50
2024-04-15T20:25:15.130Z,0.30
2024-04-15T20:27:43.260Z,0.85
2024-04-15T20:30:11.146Z,0.35
2024-04-15T20:32:40.947Z,0.28
2024-04-15T20:35:09.192Z,0.57
2024-04-15T20:37:37.095Z,0.60
2024-04-15T20:40:05.698Z,0.70
2024-04-15T20:42:33.572Z,0.68
2024-04-15T20:45:01.128Z,0.63
2024-04-15T20:47:28.846Z,0.35
2024-04-15T20:49:58.906Z,0.50
2024-04-15T20:52:26.452Z,0.30
2024-04-15T20:54:53.883Z,0.30
2024-04-15T20:57:21.830Z,0.30
2024-04-15T20:59:49.695Z,0.43
2024-04-15T21:02:17.276Z,0.40
2024-04-15T21:04:45.610Z,0.52
2024-04-15T21:07:13.213Z,0.40
2024-04-15T21:09:40.767Z,0.40
2024-04-15T21:12:08.480Z,0.55
2024-04-15T21:14:36.242Z,0.52
2024-04-15T21:17:04.190Z,0.65
2024-04-15T21:19:32.164Z,0.73
2024-04-15T21:22:00.299Z,0.43
2024-04-15T21:24:27.798Z,0.30
2024-04-15T21:26:55.491Z,0.65
2024-04-15T21:29:23.224Z,0.30
2024-04-15T21:31:50.676Z,0.32
2024-04-15T21:34:18.205Z,0.43
2024-04-15T21:36:45.917Z,0.50
2024-04-15T21:39:16.193Z,0.50
2024-04-15T21:41:44.742Z,0.50
2024-04-15T21:44:12.412Z,0.50
2024-04-15T21:46:40.226Z,0.70
2024-04-15T21:49:08.066Z,0.60
2024-04-15T21:51:36.042Z,0.50
2024-04-15T21:54:03.591Z,0.77
2024-04-15T21:56:31.221Z,0.40
2024-04-15T21:58:58.953Z,0.80
2024-04-15T22:01:26.798Z,0.50
2024-04-15T22:03:56.626Z,0.50
2024-04-15T22:06:24.308Z,0.57
2024-04-15T22:08:53.007Z,0.60
2024-04-15T22:11:20.600Z,0.55
2024-04-15T22:13:48.200Z,0.65
2024-04-15T22:16:16.085Z,0.93
2024-04-15T22:18:43.726Z,0.68
2024-04-15T22:21:12.060Z,1.08
2024-04-15T22:23:39.900Z,0.60
2024-04-15T22:26:07.912Z,1.00
2024-04-15T22:28:35.793Z,0.77
2024-04-15T22:31:03.513Z,0.80
2024-04-15T22:33:31.070Z,0.88
2024-04-15T22:35:59.697Z,1.02
2024-04-15T22:38:28.338Z,1.25
2024-04-15T22:40:56.511Z,1.27
2024-04-15T22:43:24.112Z,0.90
2024-04-15T22:45:51.661Z,0.90
2024-04-15T22:48:21.155Z,0.60
2024-04-15T22:50:48.741Z,1.02
2024-04-15T22:53:16.160Z,1.00
2024-04-15T22:55:43.622Z,1.02
2024-04-15T22:58:11.685Z,1.17
2024-04-15T23:00:39.314Z,1.30
2024-04-15T23:03:06.887Z,1.10
2024-04-15T23:05:35.494Z,0.95
2024-04-15T23:08:03.154Z,1.00
2024-04-15T23:10:33.032Z,0.50
2024-04-15T23:13:00.640Z,0.68
2024-04-15T23:15:28.293Z,0.77
2024-04-15T23:17:56.182Z,1.20
2024-04-15T23:20:23.983Z,1.05
2024-04-15T23:22:51.821Z,0.88
2024-04-15T23:25:19.725Z,0.98
2024-04-15T23:27:47.252Z,1.02
2024-04-15T23:30:15.081Z,0.55
2024-04-15T23:32:42.867Z,0.75
2024-04-15T23:35:10.292Z,0.63
2024-04-15T23:37:37.718Z,0.95
2024-04-15T23:40:05.647Z,0.63
2024-04-15T23:42:34.158Z,0.90
2024-04-15T23:45:20.357Z,0.70
2024-04-15T23:48:07.064Z,1.00
2024-04-15T23:50:53.121Z,0.80
2024-04-15T23:53:39.302Z,0.88
2024-04-15T23:56:25.656Z,0.70
2024-04-15T23:58:53.435Z,0.88
